sensor_id;sensor_type;location;lat;lon;timestamp;temperature;humidity
29031;DHT22;16122;50.236;11.734;2023-12-07T00:01:39;16.20;93.50
29031;DHT22;16122;50.236;11.734;2023-12-07T00:04:05;16.20;93.40
29031;DHT22;16122;50.236;11.734;2023-12-07T00:06:30;16.20;93.30
29031;DHT22;16122;50.236;11.734;2023-12-07T00:08:56;16.20;93.30
29031;DHT22;16122;50.236;11.734;2023-12-07T00:11:24;16.20;93.30
29031;DHT22;16122;50.236;11.734;2023-12-07T00:13:49;16.20;93.20
29031;DHT22;16122;50.236;11.734;2023-12-07T00:16:17;16.30;93.30
29031;DHT22;16122;50.236;11.734;2023-12-07T00:18:42;16.20;93.10
29031;DHT22;16122;50.236;11.734;2023-12-07T00:21:08;16.20;92.90
29031;DHT22;16122;50.236;11.734;2023-12-07T00:23:35;16.20;92.90
29031;DHT22;16122;50.236;11.734;2023-12-07T00:26:03;16.20;93.00
29031;DHT22;16122;50.236;11.734;2023-12-07T00:28:29;16.20;93.00
29031;DHT22;16122;50.236;11.734;2023-12-07T00:30:55;16.20;93.00
29031;DHT22;16122;50.236;11.734;2023-12-07T00:33:23;16.20;93.00
29031;DHT22;16122;50.236;11.734;2023-12-07T00:35:50;16.20;93.00
29031;DHT22;16122;50.236;11.734;2023-12-07T00:38:15;16.20;93.00
29031;DHT22;16122;50.236;11.734;2023-12-07T00:40:41;16.30;92.90
29031;DHT22;16122;50.236;11.734;2023-12-07T00:43:07;16.20;92.90
29031;DHT22;16122;50.236;11.734;2023-12-07T00:45:33;16.20;92.70
29031;DHT22;16122;50.236;11.734;2023-12-07T00:47:59;16.20;92.80
29031;DHT22;16122;50.236;11.734;2023-12-07T00:50:26;16.30;92.70
29031;DHT22;16122;50.236;11.734;2023-12-07T00:52:51;16.30;92.80
29031;DHT22;16122;50.236;11.734;2023-12-07T00:55:17;16.20;92.80
29031;DHT22;16122;50.236;11.734;2023-12-07T00:57:43;16.20;92.70
29031;DHT22;16122;50.236;11.734;2023-12-07T01:00:09;16.20;92.80
29031;DHT22;16122;50.236;11.734;2023-12-07T01:02:36;16.20;92.70
29031;DHT22;16122;50.236;11.734;2023-12-07T01:05:02;16.30;92.80
29031;DHT22;16122;50.236;11.734;2023-12-07T01:07:27;16.20;92.80
29031;DHT22;16122;50.236;11.734;2023-12-07T01:09:53;16.30;92.80
29031;DHT22;16122;50.236;11.734;2023-12-07T01:12:19;16.20;92.80
29031;DHT22;16122;50.236;11.734;2023-12-07T01:14:45;16.20;92.80
29031;DHT22;16122;50.236;11.734;2023-12-07T01:17:11;16.20;92.70
29031;DHT22;16122;50.236;11.734;2023-12-07T01:19:37;16.20;92.70
29031;DHT22;16122;50.236;11.734;2023-12-07T01:22:03;16.20;92.90
29031;DHT22;16122;50.236;11.734;2023-12-07T01:24:28;16.20;92.90
29031;DHT22;16122;50.236;11.734;2023-12-07T01:26:55;16.30;93.00
29031;DHT22;16122;50.236;11.734;2023-12-07T01:29:20;16.30;92.90
29031;DHT22;16122;50.236;11.734;2023-12-07T01:31:46;16.20;93.00
29031;DHT22;16122;50.236;11.734;2023-12-07T01:34:12;16.20;92.80
29031;DHT22;16122;50.236;11.734;2023-12-07T01:36:38;16.20;92.80
29031;DHT22;16122;50.236;11.734;2023-12-07T01:39:04;16.20;92.80
29031;DHT22;16122;50.236;11.734;2023-12-07T01:41:30;16.20;92.80
29031;DHT22;16122;50.236;11.734;2023-12-07T01:43:56;16.20;92.80
29031;DHT22;16122;50.236;11.734;2023-12-07T01:46:23;16.20;92.70
29031;DHT22;16122;50.236;11.734;2023-12-07T01:48:49;16.20;92.70
29031;DHT22;16122;50.236;11.734;2023-12-07T01:51:16;16.20;92.60
29031;DHT22;16122;50.236;11.734;2023-12-07T01:53:42;16.20;92.60
29031;DHT22;16122;50.236;11.734;2023-12-07T01:56:09;16.20;92.40
29031;DHT22;16122;50.236;11.734;2023-12-07T01:58:36;16.10;92.40
29031;DHT22;16122;50.236;11.734;2023-12-07T02:01:02;16.20;92.50
29031;DHT22;16122;50.236;11.734;2023-12-07T02:03:31;16.20;92.40
29031;DHT22;16122;50.236;11.734;2023-12-07T02:05:58;16.20;92.40
29031;DHT22;16122;50.236;11.734;2023-12-07T02:08:24;16.10;92.30
29031;DHT22;16122;50.236;11.734;2023-12-07T02:10:50;16.10;92.20
29031;DHT22;16122;50.236;11.734;2023-12-07T02:13:19;16.10;92.00
29031;DHT22;16122;50.236;11.734;2023-12-07T02:15:45;16.10;92.10
29031;DHT22;16122;50.236;11.734;2023-12-07T02:18:15;16.10;92.00
29031;DHT22;16122;50.236;11.734;2023-12-07T02:23:39;16.10;91.90
29031;DHT22;16122;50.236;11.734;2023-12-07T02:29:16;16.10;91.80
29031;DHT22;16122;50.236;11.734;2023-12-07T02:31:42;16.10;91.80
29031;DHT22;16122;50.236;11.734;2023-12-07T02:34:08;16.10;91.70
29031;DHT22;16122;50.236;11.734;2023-12-07T02:36:35;16.10;91.80
29031;DHT22;16122;50.236;11.734;2023-12-07T02:39:04;16.10;91.60
29031;DHT22;16122;50.236;11.734;2023-12-07T02:41:33;16.10;91.70
29031;DHT22;16122;50.236;11.734;2023-12-07T02:44:01;16.00;91.70
29031;DHT22;16122;50.236;11.734;2023-12-07T02:46:28;16.10;91.60
29031;DHT22;16122;50.236;11.734;2023-12-07T02:48:53;16.10;91.50
29031;DHT22;16122;50.236;11.734;2023-12-07T02:51:19;16.00;91.60
29031;DHT22;16122;50.236;11.734;2023-12-07T02:53:46;16.00;91.40
29031;DHT22;16122;50.236;11.734;2023-12-07T02:56:11;16.00;91.40
29031;DHT22;16122;50.236;11.734;2023-12-07T02:58:37;16.00;91.40
29031;DHT22;16122;50.236;11.734;2023-12-07T03:01:03;16.00;91.60
29031;DHT22;16122;50.236;11.734;2023-12-07T03:03:30;15.90;91.90
29031;DHT22;16122;50.236;11.734;2023-12-07T03:05:56;16.00;91.40
29031;DHT22;16122;50.236;11.734;2023-12-07T03:08:22;15.90;91.70
29031;DHT22;16122;50.236;11.734;2023-12-07T03:10:47;15.90;91.80
29031;DHT22;16122;50.236;11.734;2023-12-07T03:13:13;15.90;91.80
29031;DHT22;16122;50.236;11.734;2023-12-07T03:15:39;16.00;92.00
29031;DHT22;16122;50.236;11.734;2023-12-07T03:18:05;16.00;92.00
29031;DHT22;16122;50.236;11.734;2023-12-07T03:20:31;16.00;92.40
29031;DHT22;16122;50.236;11.734;2023-12-07T03:22:57;16.00;92.20
29031;DHT22;16122;50.236;11.734;2023-12-07T03:25:22;16.00;92.10
29031;DHT22;16122;50.236;11.734;2023-12-07T03:27:48;16.10;92.10
29031;DHT22;16122;50.236;11.734;2023-12-07T03:30:14;16.00;92.00
29031;DHT22;16122;50.236;11.734;2023-12-07T03:32:40;16.00;92.00
29031;DHT22;16122;50.236;11.734;2023-12-07T03:35:06;16.00;92.00
29031;DHT22;16122;50.236;11.734;2023-12-07T03:37:32;16.10;91.90
29031;DHT22;16122;50.236;11.734;2023-12-07T03:39:58;16.10;92.10
29031;DHT22;16122;50.236;11.734;2023-12-07T03:42:24;16.10;92.00
29031;DHT22;16122;50.236;11.734;2023-12-07T03:44:49;16.10;91.90
29031;DHT22;16122;50.236;11.734;2023-12-07T03:47:15;16.10;91.90
29031;DHT22;16122;50.236;11.734;2023-12-07T03:49:41;16.10;92.00
29031;DHT22;16122;50.236;11.734;2023-12-07T03:52:07;16.10;91.80
29031;DHT22;16122;50.236;11.734;2023-12-07T03:54:33;16.10;91.90
29031;DHT22;16122;50.236;11.734;2023-12-07T03:56:59;16.10;92.00
29031;DHT22;16122;50.236;11.734;2023-12-07T03:59:24;16.10;92.10
29031;DHT22;16122;50.236;11.734;2023-12-07T04:01:50;16.10;92.10
29031;DHT22;16122;50.236;11.734;2023-12-07T04:04:16;16.20;92.10
29031;DHT22;16122;50.236;11.734;2023-12-07T04:06:42;16.20;92.00
29031;DHT22;16122;50.236;11.734;2023-12-07T04:09:07;16.10;92.10
29031;DHT22;16122;50.236;11.734;2023-12-07T04:11:33;16.20;92.10
29031;DHT22;16122;50.236;11.734;2023-12-07T04:13:59;16.20;92.20
29031;DHT22;16122;50.236;11.734;2023-12-07T04:16:25;16.10;92.20
29031;DHT22;16122;50.236;11.734;2023-12-07T04:18:51;16.20;92.20
29031;DHT22;16122;50.236;11.734;2023-12-07T04:21:17;16.10;92.20
29031;DHT22;16122;50.236;11.734;2023-12-07T04:23:43;16.10;92.20
29031;DHT22;16122;50.236;11.734;2023-12-07T04:26:08;16.10;92.20
29031;DHT22;16122;50.236;11.734;2023-12-07T04:28:34;16.20;92.20
29031;DHT22;16122;50.236;11.734;2023-12-07T04:31:00;16.10;92.00
29031;DHT22;16122;50.236;11.734;2023-12-07T04:33:26;16.10;92.00
29031;DHT22;16122;50.236;11.734;2023-12-07T04:35:52;16.10;91.90
29031;DHT22;16122;50.236;11.734;2023-12-07T04:38:18;16.10;91.90
29031;DHT22;16122;50.236;11.734;2023-12-07T04:40:44;16.10;91.90
29031;DHT22;16122;50.236;11.734;2023-12-07T04:43:09;16.10;91.90
29031;DHT22;16122;50.236;11.734;2023-12-07T04:45:35;16.10;91.90
29031;DHT22;16122;50.236;11.734;2023-12-07T04:48:01;16.10;91.90
29031;DHT22;16122;50.236;11.734;2023-12-07T04:50:28;16.20;91.90
29031;DHT22;16122;50.236;11.734;2023-12-07T04:52:53;16.10;91.90
29031;DHT22;16122;50.236;11.734;2023-12-07T04:55:20;16.10;91.80
29031;DHT22;16122;50.236;11.734;2023-12-07T04:57:46;16.10;92.00
29031;DHT22;16122;50.236;11.734;2023-12-07T05:00:12;16.10;91.90
29031;DHT22;16122;50.236;11.734;2023-12-07T05:02:39;16.10;92.00
29031;DHT22;16122;50.236;11.734;2023-12-07T05:05:05;16.10;92.10
29031;DHT22;16122;50.236;11.734;2023-12-07T05:07:31;16.20;92.10
29031;DHT22;16122;50.236;11.734;2023-12-07T05:09:57;16.20;92.20
29031;DHT22;16122;50.236;11.734;2023-12-07T05:12:22;16.10;92.10
29031;DHT22;16122;50.236;11.734;2023-12-07T05:14:48;16.20;92.30
29031;DHT22;16122;50.236;11.734;2023-12-07T05:17:14;16.20;92.30
29031;DHT22;16122;50.236;11.734;2023-12-07T05:19:41;16.20;92.10
29031;DHT22;16122;50.236;11.734;2023-12-07T05:22:06;16.20;92.10
29031;DHT22;16122;50.236;11.734;2023-12-07T05:24:32;16.10;92.00
29031;DHT22;16122;50.236;11.734;2023-12-07T05:27:00;16.10;92.10
29031;DHT22;16122;50.236;11.734;2023-12-07T05:29:25;16.10;92.00
29031;DHT22;16122;50.236;11.734;2023-12-07T05:31:51;16.20;92.10
29031;DHT22;16122;50.236;11.734;2023-12-07T05:34:17;16.10;92.10
29031;DHT22;16122;50.236;11.734;2023-12-07T05:36:43;16.10;92.20
29031;DHT22;16122;50.236;11.734;2023-12-07T05:39:09;16.20;92.10
29031;DHT22;16122;50.236;11.734;2023-12-07T05:41:36;16.20;92.00
29031;DHT22;16122;50.236;11.734;2023-12-07T05:44:02;16.20;91.90
29031;DHT22;16122;50.236;11.734;2023-12-07T05:46:29;16.20;92.10
29031;DHT22;16122;50.236;11.734;2023-12-07T05:48:55;16.30;92.10
29031;DHT22;16122;50.236;11.734;2023-12-07T05:51:22;16.20;92.20
29031;DHT22;16122;50.236;11.734;2023-12-07T05:53:48;16.20;92.20
29031;DHT22;16122;50.236;11.734;2023-12-07T05:56:18;16.30;92.30
29031;DHT22;16122;50.236;11.734;2023-12-07T05:58:46;16.20;92.40
29031;DHT22;16122;50.236;11.734;2023-12-07T06:01:11;16.30;92.60
29031;DHT22;16122;50.236;11.734;2023-12-07T06:03:37;16.30;92.60
29031;DHT22;16122;50.236;11.734;2023-12-07T06:06:03;16.30;92.60
29031;DHT22;16122;50.236;11.734;2023-12-07T06:08:29;16.30;92.60
29031;DHT22;16122;50.236;11.734;2023-12-07T06:10:55;16.30;92.60
29031;DHT22;16122;50.236;11.734;2023-12-07T06:13:21;16.30;92.60
29031;DHT22;16122;50.236;11.734;2023-12-07T06:15:47;16.30;92.80
29031;DHT22;16122;50.236;11.734;2023-12-07T06:18:13;16.30;92.70
29031;DHT22;16122;50.236;11.734;2023-12-07T06:20:38;16.30;92.80
29031;DHT22;16122;50.236;11.734;2023-12-07T06:23:04;16.30;92.80
29031;DHT22;16122;50.236;11.734;2023-12-07T06:25:32;16.30;92.80
29031;DHT22;16122;50.236;11.734;2023-12-07T06:27:58;16.30;92.70
29031;DHT22;16122;50.236;11.734;2023-12-07T06:30:23;16.20;92.60
29031;DHT22;16122;50.236;11.734;2023-12-07T06:32:50;16.30;92.60
29031;DHT22;16122;50.236;11.734;2023-12-07T06:35:16;16.30;92.70
29031;DHT22;16122;50.236;11.734;2023-12-07T06:37:41;16.30;92.60
29031;DHT22;16122;50.236;11.734;2023-12-07T06:40:09;16.20;92.60
29031;DHT22;16122;50.236;11.734;2023-12-07T06:42:35;16.30;92.70
29031;DHT22;16122;50.236;11.734;2023-12-07T06:45:02;16.20;92.60
29031;DHT22;16122;50.236;11.734;2023-12-07T06:47:28;16.20;92.50
29031;DHT22;16122;50.236;11.734;2023-12-07T06:49:54;16.20;92.50
29031;DHT22;16122;50.236;11.734;2023-12-07T06:52:21;16.20;92.60
29031;DHT22;16122;50.236;11.734;2023-12-07T06:54:47;16.20;92.60
29031;DHT22;16122;50.236;11.734;2023-12-07T06:57:13;16.20;92.60
29031;DHT22;16122;50.236;11.734;2023-12-07T06:59:39;16.10;92.40
29031;DHT22;16122;50.236;11.734;2023-12-07T07:02:06;16.20;92.50
29031;DHT22;16122;50.236;11.734;2023-12-07T07:04:32;16.10;92.60
29031;DHT22;16122;50.236;11.734;2023-12-07T07:06:58;16.20;92.20
29031;DHT22;16122;50.236;11.734;2023-12-07T07:09:24;16.10;92.00
29031;DHT22;16122;50.236;11.734;2023-12-07T07:11:50;16.10;91.90
29031;DHT22;16122;50.236;11.734;2023-12-07T07:14:16;16.10;91.80
29031;DHT22;16122;50.236;11.734;2023-12-07T07:16:42;16.10;91.90
29031;DHT22;16122;50.236;11.734;2023-12-07T07:19:08;16.10;91.90
29031;DHT22;16122;50.236;11.734;2023-12-07T07:21:34;16.20;91.70
29031;DHT22;16122;50.236;11.734;2023-12-07T07:24:00;16.10;91.70
29031;DHT22;16122;50.236;11.734;2023-12-07T07:26:25;16.10;91.70
29031;DHT22;16122;50.236;11.734;2023-12-07T07:28:52;16.10;91.90
29031;DHT22;16122;50.236;11.734;2023-12-07T07:31:18;16.00;91.90
29031;DHT22;16122;50.236;11.734;2023-12-07T07:33:45;16.10;91.90
29031;DHT22;16122;50.236;11.734;2023-12-07T07:36:13;16.10;91.90
29031;DHT22;16122;50.236;11.734;2023-12-07T07:38:40;16.00;91.70
29031;DHT22;16122;50.236;11.734;2023-12-07T07:41:06;16.10;92.10
29031;DHT22;16122;50.236;11.734;2023-12-07T07:43:32;16.10;92.30
29031;DHT22;16122;50.236;11.734;2023-12-07T07:46:00;16.00;92.10
29031;DHT22;16122;50.236;11.734;2023-12-07T07:48:26;16.00;92.40
29031;DHT22;16122;50.236;11.734;2023-12-07T07:50:52;16.10;92.50
29031;DHT22;16122;50.236;11.734;2023-12-07T07:53:18;16.00;92.60
29031;DHT22;16122;50.236;11.734;2023-12-07T07:55:43;16.00;92.50
29031;DHT22;16122;50.236;11.734;2023-12-07T07:58:09;16.10;92.50
29031;DHT22;16122;50.236;11.734;2023-12-07T08:00:35;16.10;92.40
29031;DHT22;16122;50.236;11.734;2023-12-07T08:03:01;16.10;92.40
29031;DHT22;16122;50.236;11.734;2023-12-07T08:05:27;16.10;92.50
29031;DHT22;16122;50.236;11.734;2023-12-07T08:07:53;16.10;92.60
29031;DHT22;16122;50.236;11.734;2023-12-07T08:10:18;16.10;92.70
29031;DHT22;16122;50.236;11.734;2023-12-07T08:12:44;16.10;92.80
29031;DHT22;16122;50.236;11.734;2023-12-07T08:15:10;16.10;92.90
29031;DHT22;16122;50.236;11.734;2023-12-07T08:17:38;16.10;92.70
29031;DHT22;16122;50.236;11.734;2023-12-07T08:20:06;16.10;92.80
29031;DHT22;16122;50.236;11.734;2023-12-07T08:22:32;16.10;92.80
29031;DHT22;16122;50.236;11.734;2023-12-07T08:24:58;16.10;92.80
29031;DHT22;16122;50.236;11.734;2023-12-07T08:27:25;16.10;92.80
29031;DHT22;16122;50.236;11.734;2023-12-07T08:29:51;16.10;92.70
29031;DHT22;16122;50.236;11.734;2023-12-07T08:32:17;16.10;92.80
29031;DHT22;16122;50.236;11.734;2023-12-07T08:34:45;16.10;92.70
29031;DHT22;16122;50.236;11.734;2023-12-07T08:37:10;16.10;92.70
29031;DHT22;16122;50.236;11.734;2023-12-07T08:39:36;16.10;92.80
29031;DHT22;16122;50.236;11.734;2023-12-07T08:42:02;16.10;92.50
29031;DHT22;16122;50.236;11.734;2023-12-07T08:44:28;16.10;92.60
29031;DHT22;16122;50.236;11.734;2023-12-07T08:46:54;16.20;92.70
29031;DHT22;16122;50.236;11.734;2023-12-07T08:49:20;16.10;92.70
29031;DHT22;16122;50.236;11.734;2023-12-07T08:51:45;16.20;92.70
29031;DHT22;16122;50.236;11.734;2023-12-07T08:54:11;16.10;92.70
29031;DHT22;16122;50.236;11.734;2023-12-07T08:56:37;16.10;92.70
29031;DHT22;16122;50.236;11.734;2023-12-07T08:59:03;16.20;92.70
29031;DHT22;16122;50.236;11.734;2023-12-07T09:01:29;16.20;92.70
29031;DHT22;16122;50.236;11.734;2023-12-07T09:03:59;16.20;92.60
29031;DHT22;16122;50.236;11.734;2023-12-07T09:06:25;16.20;92.60
29031;DHT22;16122;50.236;11.734;2023-12-07T09:08:50;16.20;92.50
29031;DHT22;16122;50.236;11.734;2023-12-07T09:11:16;16.20;92.40
29031;DHT22;16122;50.236;11.734;2023-12-07T09:13:42;16.20;92.40
29031;DHT22;16122;50.236;11.734;2023-12-07T09:16:09;16.20;92.30
29031;DHT22;16122;50.236;11.734;2023-12-07T09:18:36;16.20;92.30
29031;DHT22;16122;50.236;11.734;2023-12-07T09:21:02;16.20;92.20
29031;DHT22;16122;50.236;11.734;2023-12-07T09:23:28;16.20;92.40
29031;DHT22;16122;50.236;11.734;2023-12-07T09:25:54;16.20;92.40
29031;DHT22;16122;50.236;11.734;2023-12-07T09:28:20;16.20;92.40
29031;DHT22;16122;50.236;11.734;2023-12-07T09:30:45;16.20;92.30
29031;DHT22;16122;50.236;11.734;2023-12-07T09:33:12;16.30;92.50
29031;DHT22;16122;50.236;11.734;2023-12-07T09:35:39;16.30;92.40
29031;DHT22;16122;50.236;11.734;2023-12-07T09:38:05;16.20;92.20
29031;DHT22;16122;50.236;11.734;2023-12-07T09:40:32;16.20;92.20
29031;DHT22;16122;50.236;11.734;2023-12-07T09:42:58;16.20;92.20
29031;DHT22;16122;50.236;11.734;2023-12-07T09:45:24;16.30;92.20
29031;DHT22;16122;50.236;11.734;2023-12-07T09:47:51;16.30;92.40
29031;DHT22;16122;50.236;11.734;2023-12-07T09:50:19;16.30;92.30
29031;DHT22;16122;50.236;11.734;2023-12-07T09:52:48;16.30;92.30
29031;DHT22;16122;50.236;11.734;2023-12-07T09:55:18;16.30;92.30
29031;DHT22;16122;50.236;11.734;2023-12-07T09:57:46;16.20;92.30
29031;DHT22;16122;50.236;11.734;2023-12-07T10:00:12;16.30;92.30
29031;DHT22;16122;50.236;11.734;2023-12-07T10:02:41;16.30;92.10
29031;DHT22;16122;50.236;11.734;2023-12-07T10:05:13;16.30;92.00
29031;DHT22;16122;50.236;11.734;2023-12-07T10:07:49;16.30;91.80
29031;DHT22;16122;50.236;11.734;2023-12-07T10:10:16;16.30;91.60
29031;DHT22;16122;50.236;11.734;2023-12-07T10:12:53;16.30;91.70
29031;DHT22;16122;50.236;11.734;2023-12-07T10:15:21;16.30;91.70
29031;DHT22;16122;50.236;11.734;2023-12-07T10:17:52;16.30;91.60
29031;DHT22;16122;50.236;11.734;2023-12-07T10:20:19;16.30;91.60
29031;DHT22;16122;50.236;11.734;2023-12-07T10:23:00;16.30;91.80
29031;DHT22;16122;50.236;11.734;2023-12-07T10:25:29;16.30;91.60
29031;DHT22;16122;50.236;11.734;2023-12-07T10:27:55;16.30;91.60
29031;DHT22;16122;50.236;11.734;2023-12-07T10:30:21;16.30;91.40
29031;DHT22;16122;50.236;11.734;2023-12-07T10:32:51;16.30;91.60
29031;DHT22;16122;50.236;11.734;2023-12-07T10:35:18;16.30;91.70
29031;DHT22;16122;50.236;11.734;2023-12-07T10:37:46;16.30;91.70
29031;DHT22;16122;50.236;11.734;2023-12-07T10:40:12;16.30;91.60
29031;DHT22;16122;50.236;11.734;2023-12-07T10:42:41;16.30;91.70
29031;DHT22;16122;50.236;11.734;2023-12-07T10:45:07;16.30;91.70
29031;DHT22;16122;50.236;11.734;2023-12-07T10:47:37;16.30;91.70
29031;DHT22;16122;50.236;11.734;2023-12-07T10:50:07;16.30;91.50
29031;DHT22;16122;50.236;11.734;2023-12-07T10:52:52;16.30;91.40
29031;DHT22;16122;50.236;11.734;2023-12-07T10:55:21;16.30;91.60
29031;DHT22;16122;50.236;11.734;2023-12-07T10:57:52;16.30;91.10
29031;DHT22;16122;50.236;11.734;2023-12-07T11:00:20;16.30;91.10
29031;DHT22;16122;50.236;11.734;2023-12-07T11:02:50;16.30;91.40
29031;DHT22;16122;50.236;11.734;2023-12-07T11:05:17;16.30;91.50
29031;DHT22;16122;50.236;11.734;2023-12-07T11:07:59;16.30;92.10
29031;DHT22;16122;50.236;11.734;2023-12-07T11:13:25;16.20;93.80
29031;DHT22;16122;50.236;11.734;2023-12-07T11:15:53;16.20;94.10
29031;DHT22;16122;50.236;11.734;2023-12-07T11:18:18;16.20;94.30
29031;DHT22;16122;50.236;11.734;2023-12-07T11:20:45;16.20;94.40
29031;DHT22;16122;50.236;11.734;2023-12-07T11:23:16;16.20;94.40
29031;DHT22;16122;50.236;11.734;2023-12-07T11:25:45;16.20;94.40
29031;DHT22;16122;50.236;11.734;2023-12-07T11:28:12;16.20;94.40
29031;DHT22;16122;50.236;11.734;2023-12-07T11:30:38;16.20;94.50
29031;DHT22;16122;50.236;11.734;2023-12-07T11:33:06;16.20;94.10
29031;DHT22;16122;50.236;11.734;2023-12-07T11:35:33;16.20;94.30
29031;DHT22;16122;50.236;11.734;2023-12-07T11:38:08;16.10;94.20
29031;DHT22;16122;50.236;11.734;2023-12-07T11:40:41;16.20;94.10
29031;DHT22;16122;50.236;11.734;2023-12-07T11:43:07;16.10;94.20
29031;DHT22;16122;50.236;11.734;2023-12-07T11:46:00;16.10;94.20
29031;DHT22;16122;50.236;11.734;2023-12-07T11:48:26;16.10;94.20
29031;DHT22;16122;50.236;11.734;2023-12-07T11:53:26;16.10;94.10
29031;DHT22;16122;50.236;11.734;2023-12-07T11:55:52;16.10;94.10
29031;DHT22;16122;50.236;11.734;2023-12-07T11:58:18;16.10;94.20
29031;DHT22;16122;50.236;11.734;2023-12-07T12:00:45;16.10;94.10
29031;DHT22;16122;50.236;11.734;2023-12-07T12:03:14;16.10;94.10
29031;DHT22;16122;50.236;11.734;2023-12-07T12:05:41;16.10;94.20
29031;DHT22;16122;50.236;11.734;2023-12-07T12:08:07;16.10;94.20
29031;DHT22;16122;50.236;11.734;2023-12-07T12:10:33;16.10;94.20
29031;DHT22;16122;50.236;11.734;2023-12-07T12:13:03;16.10;94.30
29031;DHT22;16122;50.236;11.734;2023-12-07T12:15:29;16.10;94.20
29031;DHT22;16122;50.236;11.734;2023-12-07T12:17:58;16.10;94.10
29031;DHT22;16122;50.236;11.734;2023-12-07T12:20:25;16.10;94.10
29031;DHT22;16122;50.236;11.734;2023-12-07T12:22:51;16.10;94.00
29031;DHT22;16122;50.236;11.734;2023-12-07T12:25:22;16.10;94.00
29031;DHT22;16122;50.236;11.734;2023-12-07T12:27:52;16.00;93.90
29031;DHT22;16122;50.236;11.734;2023-12-07T12:30:20;16.00;93.60
29031;DHT22;16122;50.236;11.734;2023-12-07T12:32:46;16.10;93.60
29031;DHT22;16122;50.236;11.734;2023-12-07T12:35:15;16.00;93.60
29031;DHT22;16122;50.236;11.734;2023-12-07T12:37:45;16.00;93.60
29031;DHT22;16122;50.236;11.734;2023-12-07T12:40:12;16.00;94.00
29031;DHT22;16122;50.236;11.734;2023-12-07T12:42:43;16.00;93.50
29031;DHT22;16122;50.236;11.734;2023-12-07T12:45:09;16.00;93.40
29031;DHT22;16122;50.236;11.734;2023-12-07T12:47:39;16.00;93.50
29031;DHT22;16122;50.236;11.734;2023-12-07T12:50:06;16.00;93.20
29031;DHT22;16122;50.236;11.734;2023-12-07T12:52:33;16.00;93.10
29031;DHT22;16122;50.236;11.734;2023-12-07T12:54:59;16.00;93.10
29031;DHT22;16122;50.236;11.734;2023-12-07T12:57:25;16.00;92.90
29031;DHT22;16122;50.236;11.734;2023-12-07T12:59:51;16.00;92.80
29031;DHT22;16122;50.236;11.734;2023-12-07T13:02:17;16.00;92.80
29031;DHT22;16122;50.236;11.734;2023-12-07T13:04:46;16.00;92.90
29031;DHT22;16122;50.236;11.734;2023-12-07T13:07:12;16.00;93.00
29031;DHT22;16122;50.236;11.734;2023-12-07T13:09:42;16.00;92.90
29031;DHT22;16122;50.236;11.734;2023-12-07T13:12:09;16.00;92.90
29031;DHT22;16122;50.236;11.734;2023-12-07T13:14:35;16.00;92.80
29031;DHT22;16122;50.236;11.734;2023-12-07T13:17:04;16.00;92.90
29031;DHT22;16122;50.236;11.734;2023-12-07T13:19:30;16.00;93.00
29031;DHT22;16122;50.236;11.734;2023-12-07T13:21:55;16.00;93.10
29031;DHT22;16122;50.236;11.734;2023-12-07T13:24:22;16.10;93.10
29031;DHT22;16122;50.236;11.734;2023-12-07T13:26:47;16.20;93.10
29031;DHT22;16122;50.236;11.734;2023-12-07T13:29:13;16.10;93.20
29031;DHT22;16122;50.236;11.734;2023-12-07T13:31:39;16.10;93.20
29031;DHT22;16122;50.236;11.734;2023-12-07T13:34:06;16.20;93.10
29031;DHT22;16122;50.236;11.734;2023-12-07T13:36:32;16.10;93.10
29031;DHT22;16122;50.236;11.734;2023-12-07T13:38:59;16.20;93.10
29031;DHT22;16122;50.236;11.734;2023-12-07T13:41:28;16.20;93.10
29031;DHT22;16122;50.236;11.734;2023-12-07T13:43:54;16.20;93.10
29031;DHT22;16122;50.236;11.734;2023-12-07T13:46:20;16.30;93.20
29031;DHT22;16122;50.236;11.734;2023-12-07T13:48:46;16.20;93.20
29031;DHT22;16122;50.236;11.734;2023-12-07T13:51:12;16.30;93.20
29031;DHT22;16122;50.236;11.734;2023-12-07T13:53:38;16.30;93.20
29031;DHT22;16122;50.236;11.734;2023-12-07T13:56:05;16.30;93.10
29031;DHT22;16122;50.236;11.734;2023-12-07T13:58:31;16.40;93.20
29031;DHT22;16122;50.236;11.734;2023-12-07T14:00:57;16.40;93.10
29031;DHT22;16122;50.236;11.734;2023-12-07T14:03:22;16.30;93.00
29031;DHT22;16122;50.236;11.734;2023-12-07T14:05:49;16.40;93.10
29031;DHT22;16122;50.236;11.734;2023-12-07T14:08:15;16.30;93.10
29031;DHT22;16122;50.236;11.734;2023-12-07T14:10:41;16.30;93.20
29031;DHT22;16122;50.236;11.734;2023-12-07T14:13:06;16.40;93.20
29031;DHT22;16122;50.236;11.734;2023-12-07T14:15:33;16.40;93.30
29031;DHT22;16122;50.236;11.734;2023-12-07T14:18:01;16.40;93.20
29031;DHT22;16122;50.236;11.734;2023-12-07T14:20:28;16.30;93.20
29031;DHT22;16122;50.236;11.734;2023-12-07T14:22:55;16.30;93.20
29031;DHT22;16122;50.236;11.734;2023-12-07T14:25:21;16.40;93.20
29031;DHT22;16122;50.236;11.734;2023-12-07T14:27:47;16.30;93.20
29031;DHT22;16122;50.236;11.734;2023-12-07T14:30:13;16.30;93.10
29031;DHT22;16122;50.236;11.734;2023-12-07T14:32:39;16.30;92.90
29031;DHT22;16122;50.236;11.734;2023-12-07T14:35:09;16.20;92.80
29031;DHT22;16122;50.236;11.734;2023-12-07T14:37:34;16.30;92.80
29031;DHT22;16122;50.236;11.734;2023-12-07T14:40:00;16.30;92.60
29031;DHT22;16122;50.236;11.734;2023-12-07T14:42:26;16.40;92.70
29031;DHT22;16122;50.236;11.734;2023-12-07T14:44:52;16.30;92.60
29031;DHT22;16122;50.236;11.734;2023-12-07T14:47:18;16.30;92.50
29031;DHT22;16122;50.236;11.734;2023-12-07T14:49:43;16.30;92.50
29031;DHT22;16122;50.236;11.734;2023-12-07T14:52:09;16.30;92.50
29031;DHT22;16122;50.236;11.734;2023-12-07T14:54:38;16.30;92.40
29031;DHT22;16122;50.236;11.734;2023-12-07T14:57:03;16.20;92.30
29031;DHT22;16122;50.236;11.734;2023-12-07T14:59:33;16.30;92.10
29031;DHT22;16122;50.236;11.734;2023-12-07T15:01:59;16.30;92.20
29031;DHT22;16122;50.236;11.734;2023-12-07T15:04:26;16.30;92.50
29031;DHT22;16122;50.236;11.734;2023-12-07T15:06:51;16.30;92.40
29031;DHT22;16122;50.236;11.734;2023-12-07T15:09:19;16.30;92.50
29031;DHT22;16122;50.236;11.734;2023-12-07T15:11:45;16.30;92.40
29031;DHT22;16122;50.236;11.734;2023-12-07T15:14:12;16.30;92.40
29031;DHT22;16122;50.236;11.734;2023-12-07T15:16:38;16.30;92.40
29031;DHT22;16122;50.236;11.734;2023-12-07T15:19:04;16.30;92.60
29031;DHT22;16122;50.236;11.734;2023-12-07T15:21:30;16.30;92.40
29031;DHT22;16122;50.236;11.734;2023-12-07T15:23:58;16.20;92.40